Time;durP1;ratioP1;P1;durP2;ratioP2;P2;SDS_P1;SDS_P2;PMS_P1;PMS_P2;Temp;Humidity;BMP_temperature;BMP_pressure;BME280_temperature;BME280_humidity;BME280_pressure;Samples;Min_cycle;Max_cycle;Signal;HPM_P1;HPM_P2
2022/01/02 00:02:20;;;;;;;0.60;0.60;;;10.70;99.90;;;;;;5055495;28;20042;-86
2022/01/02 00:04:48;;;;;;;0.50;0.50;;;10.70;99.90;;;;;;5057308;28;20100;-88
2022/01/02 00:07:16;;;;;;;0.60;0.60;;;10.70;99.90;;;;;;5039391;28;20052;-87
2022/01/02 00:09:45;;;;;;;0.50;0.50;;;10.70;99.90;;;;;;5049146;28;20037;-88
2022/01/02 00:12:14;;;;;;;0.60;0.60;;;10.70;99.90;;;;;;5058022;28;20061;-89
2022/01/02 00:14:45;;;;;;;0.75;0.75;;;10.70;99.90;;;;;;5041340;28;20040;-89
2022/01/02 00:17:11;;;;;;;0.50;0.50;;;10.70;99.90;;;;;;5058888;28;20132;-89
2022/01/02 00:19:40;;;;;;;0.57;0.57;;;10.70;99.90;;;;;;5044792;28;20058;-88
2022/01/02 00:22:14;;;;;;;1.27;1.02;;;10.70;99.90;;;;;;5058013;28;20045;-87
2022/01/02 00:24:44;;;;;;;0.60;0.60;;;10.70;99.90;;;;;;5048938;28;20060;-87
2022/01/02 00:27:12;;;;;;;0.60;0.60;;;10.70;99.90;;;;;;5049659;28;20046;-89
2022/01/02 00:29:39;;;;;;;0.70;0.70;;;10.70;99.90;;;;;;5064211;28;20115;-88
2022/01/02 00:32:07;;;;;;;0.60;0.60;;;10.70;99.90;;;;;;5065649;28;20040;-88
2022/01/02 00:34:36;;;;;;;1.23;1.13;;;10.70;99.90;;;;;;5047769;28;20122;-89
2022/01/02 00:37:03;;;;;;;0.60;0.60;;;10.70;99.90;;;;;;5052559;28;20095;-88
2022/01/02 00:39:29;;;;;;;1.92;0.98;;;10.70;99.90;;;;;;5054373;28;20037;-88
2022/01/02 00:41:57;;;;;;;0.60;0.60;;;10.70;99.90;;;;;;5068693;28;20044;-88
2022/01/02 00:44:47;;;;;;;1.02;0.77;;;10.80;99.90;;;;;;5063306;28;20033;-87
2022/01/02 00:47:22;;;;;;;0.70;0.70;;;10.80;99.90;;;;;;5043010;28;20366;-88
2022/01/02 00:50:13;;;;;;;0.60;0.60;;;10.80;99.90;;;;;;5062540;28;20045;-88
2022/01/02 00:52:44;;;;;;;0.50;0.50;;;10.80;99.90;;;;;;5062305;28;20041;-87
2022/01/02 00:55:22;;;;;;;0.70;0.70;;;10.80;99.90;;;;;;5061497;28;20048;-87
2022/01/02 00:58:02;;;;;;;0.50;0.50;;;10.80;99.90;;;;;;5042195;28;20045;-88
2022/01/02 01:00:29;;;;;;;1.88;1.45;;;10.80;99.90;;;;;;5053201;28;20053;-89
2022/01/02 01:02:57;;;;;;;0.65;0.60;;;10.70;99.90;;;;;;5059536;28;20061;-88
2022/01/02 01:05:31;;;;;;;0.50;0.50;;;10.80;99.90;;;;;;5062478;28;20036;-88
2022/01/02 01:08:03;;;;;;;1.08;0.98;;;10.80;99.90;;;;;;5046065;28;20474;-89
2022/01/02 01:10:31;;;;;;;0.65;0.65;;;10.80;99.90;;;;;;5045337;28;20045;-88
2022/01/02 01:13:00;;;;;;;1.85;0.82;;;10.80;99.90;;;;;;5051758;28;20132;-89
2022/01/02 01:15:28;;;;;;;0.57;0.57;;;10.70;99.90;;;;;;5048484;28;20045;-87
2022/01/02 01:17:56;;;;;;;0.52;0.52;;;10.70;99.90;;;;;;5045244;28;20037;-88
2022/01/02 01:20:23;;;;;;;0.57;0.57;;;10.70;99.90;;;;;;5076984;28;20159;-88
2022/01/02 01:22:49;;;;;;;0.50;0.50;;;10.70;99.90;;;;;;5045237;28;20079;-88
2022/01/02 01:25:18;;;;;;;0.93;0.93;;;10.70;99.90;;;;;;5044945;28;20403;-88
2022/01/02 01:27:45;;;;;;;0.52;0.52;;;10.70;99.90;;;;;;5044471;28;20033;-87
2022/01/02 01:30:12;;;;;;;0.60;0.60;;;10.80;99.90;;;;;;5045564;28;20106;-88
2022/01/02 01:32:38;;;;;;;0.50;0.50;;;10.80;99.90;;;;;;5055674;28;20037;-88
2022/01/02 01:35:04;;;;;;;1.95;0.70;;;10.80;99.90;;;;;;5062049;28;21127;-88
2022/01/02 01:37:30;;;;;;;0.60;0.60;;;10.80;99.90;;;;;;5060199;28;20041;-88
2022/01/02 01:39:56;;;;;;;0.80;0.80;;;10.80;99.90;;;;;;5061508;28;20091;-90
2022/01/02 01:42:40;;;;;;;0.90;0.90;;;10.80;99.90;;;;;;5060773;28;20049;-86
2022/01/02 01:47:48;;;;;;;0.50;0.50;;;10.80;99.90;;;;;;5061809;28;20053;-90
2022/01/02 01:50:14;;;;;;;1.05;1.05;;;10.80;99.90;;;;;;5039913;28;20045;-87
2022/01/02 01:52:40;;;;;;;0.70;0.70;;;10.80;99.90;;;;;;5051792;28;20181;-88
2022/01/02 01:55:07;;;;;;;0.60;0.60;;;10.80;99.90;;;;;;5057832;28;20045;-87
2022/01/02 01:57:34;;;;;;;0.73;0.73;;;10.80;99.90;;;;;;5044408;28;20094;-87
2022/01/02 02:00:02;;;;;;;0.60;0.60;;;10.80;99.90;;;;;;5061577;28;20041;-88
2022/01/02 02:02:27;;;;;;;0.85;0.70;;;10.70;99.90;;;;;;5041526;28;20131;-88
2022/01/02 02:04:53;;;;;;;1.08;0.98;;;10.70;99.90;;;;;;5039790;28;20045;-88
2022/01/02 02:07:26;;;;;;;0.77;0.77;;;10.70;99.90;;;;;;5044755;28;20043;-88
2022/01/02 02:10:11;;;;;;;0.80;0.80;;;10.70;99.90;;;;;;5042339;28;20116;-89
2022/01/02 02:12:37;;;;;;;0.85;0.85;;;10.70;99.90;;;;;;5041655;28;20041;-87
2022/01/02 02:15:04;;;;;;;0.68;0.68;;;10.70;99.90;;;;;;5044019;28;20108;-87
2022/01/02 02:17:30;;;;;;;0.60;0.60;;;10.70;99.90;;;;;;5060615;28;20346;-89
2022/01/02 02:19:57;;;;;;;0.60;0.60;;;10.80;99.90;;;;;;5048005;28;20032;-88
2022/01/02 02:22:25;;;;;;;0.70;0.70;;;10.70;99.90;;;;;;5061136;28;20033;-87
2022/01/02 02:24:50;;;;;;;1.08;0.95;;;10.70;99.90;;;;;;5044112;28;20052;-88
2022/01/02 02:27:23;;;;;;;0.80;0.80;;;10.70;99.90;;;;;;5046699;28;20089;-89
2022/01/02 02:29:48;;;;;;;0.68;0.68;;;10.70;99.90;;;;;;5055939;28;20106;-89
2022/01/02 02:32:14;;;;;;;0.60;0.60;;;10.70;99.90;;;;;;5042918;28;20037;-88
2022/01/02 02:34:39;;;;;;;0.50;0.50;;;10.70;99.90;;;;;;5060160;28;20106;-89
2022/01/02 02:37:05;;;;;;;3.05;1.08;;;10.70;99.90;;;;;;5043989;28;20087;-90
2022/01/02 02:39:33;;;;;;;0.90;0.90;;;10.70;99.90;;;;;;5043020;28;20041;-89
2022/01/02 02:41:58;;;;;;;1.92;0.95;;;10.70;99.90;;;;;;5049177;28;20041;-89
2022/01/02 02:44:36;;;;;;;0.63;0.63;;;10.70;99.90;;;;;;5060590;28;20191;-89
2022/01/02 02:49:46;;;;;;;0.40;0.40;;;10.70;99.90;;;;;;5060185;28;20052;-89
2022/01/02 02:52:26;;;;;;;1.13;1.02;;;10.70;99.90;;;;;;5048861;28;20123;-89
2022/01/02 02:54:54;;;;;;;0.85;0.85;;;10.60;99.90;;;;;;5060531;28;20060;-88
2022/01/02 02:57:20;;;;;;;0.80;0.80;;;10.60;99.90;;;;;;5053052;28;20112;-88
2022/01/02 02:59:45;;;;;;;1.15;0.98;;;10.70;99.90;;;;;;5060465;28;20335;-89
2022/01/02 03:02:11;;;;;;;0.63;0.63;;;10.70;99.90;;;;;;5060307;28;20037;-88
2022/01/02 03:04:36;;;;;;;0.70;0.70;;;10.60;99.90;;;;;;5059959;28;20041;-89
2022/01/02 03:07:02;;;;;;;0.68;0.68;;;10.60;99.90;;;;;;5055315;28;20047;-89
2022/01/02 03:09:47;;;;;;;0.70;0.70;;;10.60;99.90;;;;;;5038148;28;20119;-88
2022/01/02 03:12:12;;;;;;;0.65;0.65;;;10.60;99.90;;;;;;5043641;28;20354;-88
2022/01/02 03:14:38;;;;;;;4.80;1.35;;;10.60;99.90;;;;;;5054442;28;20040;-89
2022/01/02 03:17:04;;;;;;;0.60;0.60;;;10.60;99.90;;;;;;5050571;28;20061;-89
2022/01/02 03:19:31;;;;;;;0.57;0.57;;;10.60;99.90;;;;;;5040664;28;20049;-89
2022/01/02 03:21:58;;;;;;;0.55;0.55;;;10.60;99.90;;;;;;5043112;28;20132;-88
2022/01/02 03:24:24;;;;;;;0.75;0.75;;;10.60;99.90;;;;;;5060091;28;20068;-88
2022/01/02 03:26:49;;;;;;;0.50;0.50;;;10.60;99.90;;;;;;5058965;28;20040;-88
2022/01/02 03:29:15;;;;;;;2.47;1.55;;;10.60;99.90;;;;;;5031298;28;20044;-90
2022/01/02 03:31:40;;;;;;;4.38;1.67;;;10.60;99.90;;;;;;5059021;28;20067;-89
2022/01/02 03:34:06;;;;;;;0.75;0.75;;;10.60;99.90;;;;;;5049483;28;20106;-89
2022/01/02 03:36:32;;;;;;;0.60;0.60;;;10.60;99.90;;;;;;5043634;28;20040;-90
2022/01/02 03:38:57;;;;;;;0.57;0.57;;;10.60;99.90;;;;;;5060028;28;20037;-88
2022/01/02 03:41:23;;;;;;;0.60;0.60;;;10.60;99.90;;;;;;5050613;28;20065;-89
2022/01/02 03:43:48;;;;;;;0.70;0.70;;;10.60;99.90;;;;;;5043279;28;20037;-89
2022/01/02 03:46:14;;;;;;;0.50;0.50;;;10.60;99.90;;;;;;5043327;28;20462;-88
2022/01/02 03:48:39;;;;;;;1.38;0.80;;;10.60;99.90;;;;;;5054254;28;20065;-89
2022/01/02 03:51:05;;;;;;;0.65;0.65;;;10.60;99.90;;;;;;5054884;28;20060;-88
2022/01/02 03:53:31;;;;;;;0.50;0.50;;;10.70;99.90;;;;;;5055597;28;20041;-88
2022/01/02 03:55:56;;;;;;;5.68;2.58;;;10.70;99.90;;;;;;5047074;28;20040;-88
2022/01/02 03:58:22;;;;;;;1.20;0.93;;;10.70;99.90;;;;;;5054271;28;20064;-88
2022/01/02 04:00:48;;;;;;;1.00;1.00;;;10.70;99.90;;;;;;5045598;28;20051;-89
2022/01/02 04:03:15;;;;;;;2.75;2.05;;;10.70;99.90;;;;;;5051264;28;20099;-88
2022/01/02 04:05:41;;;;;;;1.00;1.00;;;10.70;99.90;;;;;;5049898;28;20048;-89
2022/01/02 04:08:06;;;;;;;1.02;1.00;;;10.70;99.90;;;;;;5043785;28;20332;-88
2022/01/02 04:10:32;;;;;;;0.65;0.65;;;10.70;99.90;;;;;;5038716;28;20072;-89
2022/01/02 04:12:58;;;;;;;0.60;0.60;;;10.80;99.90;;;;;;5036319;28;20041;-88
2022/01/02 04:15:23;;;;;;;0.73;0.73;;;10.80;99.90;;;;;;5063873;28;20055;-89
2022/01/02 04:17:49;;;;;;;0.63;0.63;;;10.80;99.90;;;;;;5062627;28;20040;-88
2022/01/02 04:20:15;;;;;;;0.82;0.77;;;10.90;99.90;;;;;;5046488;28;20049;-87
2022/01/02 04:22:42;;;;;;;1.23;0.98;;;10.90;99.90;;;;;;5062950;28;20178;-87
2022/01/02 04:25:08;;;;;;;1.35;1.25;;;10.90;99.90;;;;;;5060115;28;20044;-87
2022/01/02 04:27:34;;;;;;;0.70;0.70;;;11.00;99.90;;;;;;5062730;28;20047;-88
2022/01/02 04:29:59;;;;;;;1.25;1.15;;;10.90;99.90;;;;;;5046578;28;20033;-88
2022/01/02 04:32:25;;;;;;;2.15;1.08;;;11.00;99.90;;;;;;5045206;28;20055;-87
2022/01/02 04:34:51;;;;;;;1.48;1.38;;;11.00;99.90;;;;;;5046033;28;20033;-88
2022/01/02 04:37:17;;;;;;;0.50;0.50;;;10.90;99.90;;;;;;5044498;28;20044;-87
2022/01/02 04:39:44;;;;;;;0.73;0.73;;;10.90;99.90;;;;;;5045519;28;20075;-87
2022/01/02 04:42:09;;;;;;;1.95;1.25;;;10.90;99.90;;;;;;5057629;28;20033;-87
2022/01/02 04:44:35;;;;;;;0.50;0.50;;;10.90;99.90;;;;;;5071444;28;20098;-88
2022/01/02 04:47:01;;;;;;;1.35;1.05;;;11.00;99.90;;;;;;5042668;28;20036;-88
2022/01/02 04:49:27;;;;;;;1.38;1.30;;;11.10;99.90;;;;;;5061935;28;20041;-88
2022/01/02 04:51:53;;;;;;;0.60;0.60;;;11.00;99.90;;;;;;5066920;28;20458;-88
2022/01/02 04:54:21;;;;;;;0.47;0.47;;;11.00;99.90;;;;;;5045796;28;20136;-89
2022/01/02 04:56:46;;;;;;;5.45;1.38;;;10.90;99.90;;;;;;5042552;28;20044;-88
2022/01/02 04:59:12;;;;;;;0.68;0.68;;;10.90;99.90;;;;;;5045878;28;20098;-89
2022/01/02 05:01:37;;;;;;;0.63;0.60;;;10.90;99.90;;;;;;5043422;28;20049;-89
2022/01/02 05:04:03;;;;;;;0.65;0.65;;;10.90;99.90;;;;;;5044984;28;20414;-89
2022/01/02 05:06:29;;;;;;;1.15;1.15;;;10.90;99.90;;;;;;5045830;28;20041;-89
2022/01/02 05:08:54;;;;;;;0.82;0.80;;;10.90;99.90;;;;;;5044689;28;20081;-89
2022/01/02 05:11:20;;;;;;;0.50;0.50;;;10.90;99.90;;;;;;5041988;28;20052;-89
2022/01/02 05:13:46;;;;;;;0.88;0.85;;;10.90;99.90;;;;;;5045543;28;20045;-90
2022/01/02 05:16:11;;;;;;;0.60;0.60;;;10.90;99.90;;;;;;5042540;28;20462;-87
2022/01/02 05:18:37;;;;;;;0.60;0.60;;;10.90;99.90;;;;;;5045809;28;20041;-87
2022/01/02 05:21:03;;;;;;;0.70;0.70;;;10.90;99.90;;;;;;5044942;28;20152;-89
2022/01/02 05:23:29;;;;;;;0.70;0.70;;;10.90;99.90;;;;;;5045041;28;20041;-89
2022/01/02 05:25:56;;;;;;;0.50;0.50;;;10.90;99.90;;;;;;5044494;28;20037;-89
2022/01/02 05:28:23;;;;;;;3.28;2.58;;;10.90;99.90;;;;;;5045149;28;20083;-88
2022/01/02 05:30:50;;;;;;;1.45;1.35;;;10.90;99.90;;;;;;5043554;28;20069;-88
2022/01/02 05:33:24;;;;;;;0.70;0.70;;;10.90;99.90;;;;;;5061282;28;20136;-88
2022/01/02 05:35:50;;;;;;;0.60;0.60;;;10.90;99.90;;;;;;5044046;28;20037;-88
2022/01/02 05:38:17;;;;;;;0.50;0.50;;;10.90;99.90;;;;;;5044262;28;20060;-88
2022/01/02 05:40:42;;;;;;;0.50;0.50;;;10.90;99.90;;;;;;5060684;28;20127;-89
2022/01/02 05:43:08;;;;;;;1.15;0.82;;;10.90;99.90;;;;;;5052968;28;20425;-89
2022/01/02 05:45:34;;;;;;;1.75;1.08;;;10.90;99.90;;;;;;5060557;28;20041;-88
2022/01/02 05:48:02;;;;;;;0.57;0.57;;;10.90;99.90;;;;;;5043621;28;20056;-88
2022/01/02 05:50:28;;;;;;;0.77;0.77;;;11.00;99.90;;;;;;5043521;28;20080;-88
2022/01/02 05:52:54;;;;;;;0.60;0.60;;;11.00;99.90;;;;;;5046996;28;20040;-89
2022/01/02 05:55:20;;;;;;;1.08;0.85;;;10.90;99.90;;;;;;5044791;28;20037;-91
2022/01/02 05:57:45;;;;;;;0.60;0.60;;;11.00;99.90;;;;;;5043552;28;20390;-89
2022/01/02 06:00:12;;;;;;;0.77;0.77;;;11.00;99.90;;;;;;5049928;28;20116;-88
2022/01/02 06:02:37;;;;;;;0.52;0.52;;;11.00;99.90;;;;;;5042928;28;20101;-89
2022/01/02 06:05:06;;;;;;;0.75;0.70;;;11.00;99.90;;;;;;5046481;28;20054;-90
2022/01/02 06:07:33;;;;;;;0.60;0.60;;;11.00;99.90;;;;;;5056459;28;20036;-88
2022/01/02 06:09:59;;;;;;;0.40;0.40;;;11.00;99.90;;;;;;5044416;28;20516;-89
2022/01/02 06:12:25;;;;;;;0.68;0.68;;;11.00;99.90;;;;;;5042701;28;20071;-88
2022/01/02 06:14:50;;;;;;;1.15;1.05;;;11.00;99.90;;;;;;5040174;28;20053;-87
2022/01/02 06:17:16;;;;;;;0.98;0.98;;;11.00;99.90;;;;;;5044110;28;20095;-87
2022/01/02 06:19:41;;;;;;;1.30;1.20;;;11.00;99.90;;;;;;5045154;28;20106;-88
2022/01/02 06:22:07;;;;;;;1.95;0.88;;;11.00;99.90;;;;;;5060454;28;20075;-88
2022/01/02 06:24:32;;;;;;;0.57;0.57;;;11.00;99.90;;;;;;5044007;28;20040;-88
2022/01/02 06:26:58;;;;;;;4.15;0.85;;;11.00;99.90;;;;;;5040806;28;20037;-88
2022/01/02 06:29:24;;;;;;;1.10;1.08;;;11.00;99.90;;;;;;5037229;28;20056;-88
2022/01/02 06:31:49;;;;;;;0.52;0.52;;;11.10;99.90;;;;;;5053498;28;20140;-86
2022/01/02 06:34:15;;;;;;;1.42;1.10;;;11.10;99.90;;;;;;5039006;28;20041;-88
2022/01/02 06:36:40;;;;;;;7.22;3.63;;;11.10;99.90;;;;;;5059121;28;20040;-88
2022/01/02 06:39:06;;;;;;;0.50;0.50;;;11.10;99.90;;;;;;5035629;28;20033;-89
2022/01/02 06:41:32;;;;;;;0.80;0.80;;;11.10;99.90;;;;;;5044266;28;20052;-89
2022/01/02 06:43:57;;;;;;;0.60;0.60;;;11.10;99.90;;;;;;5043969;28;20044;-90
2022/01/02 06:46:23;;;;;;;0.60;0.60;;;11.10;99.90;;;;;;5050148;28;20068;-88
2022/01/02 06:48:48;;;;;;;1.83;1.73;;;11.10;99.90;;;;;;5042000;28;20037;-89
2022/01/02 06:51:14;;;;;;;2.35;2.15;;;11.10;99.90;;;;;;5043004;28;20041;-89
2022/01/02 06:53:39;;;;;;;0.50;0.50;;;11.10;99.90;;;;;;5060755;28;20064;-88
2022/01/02 06:56:05;;;;;;;3.30;2.15;;;11.10;99.90;;;;;;5060517;28;20045;-88
2022/01/02 06:58:31;;;;;;;0.88;0.88;;;11.10;99.90;;;;;;5050006;28;20481;-89
2022/01/02 07:00:57;;;;;;;0.50;0.50;;;11.10;99.90;;;;;;5058353;28;20444;-89
2022/01/02 07:03:24;;;;;;;1.05;0.70;;;11.10;99.90;;;;;;5057129;28;20045;-89
2022/01/02 07:05:50;;;;;;;0.60;0.60;;;11.10;99.90;;;;;;5043360;28;20120;-88
2022/01/02 07:08:16;;;;;;;0.50;0.50;;;11.10;99.90;;;;;;5044076;28;20064;-89
2022/01/02 07:10:41;;;;;;;0.60;0.60;;;11.20;99.90;;;;;;5043212;28;20485;-88
2022/01/02 07:13:07;;;;;;;1.73;1.63;;;11.20;99.90;;;;;;5040978;28;20073;-88
2022/01/02 07:15:32;;;;;;;3.95;1.85;;;11.30;99.90;;;;;;5038009;28;20108;-87
2022/01/02 07:17:59;;;;;;;1.52;1.02;;;11.20;99.90;;;;;;5059391;28;20037;-89
2022/01/02 07:20:25;;;;;;;0.50;0.50;;;11.30;99.90;;;;;;5044678;28;20144;-91
2022/01/02 07:22:50;;;;;;;0.57;0.57;;;11.40;99.90;;;;;;5056348;28;20156;-89
2022/01/02 07:25:16;;;;;;;0.50;0.50;;;11.30;99.90;;;;;;5029763;28;20051;-89
2022/01/02 07:27:41;;;;;;;0.50;0.50;;;11.30;99.90;;;;;;5043007;28;20084;-90
2022/01/02 07:30:08;;;;;;;1.13;1.02;;;11.30;99.90;;;;;;5059446;28;20029;-90
2022/01/02 07:32:34;;;;;;;1.33;1.27;;;11.40;99.90;;;;;;5038606;28;20557;-87
2022/01/02 07:34:59;;;;;;;0.43;0.43;;;11.40;99.90;;;;;;5040422;28;20048;-88
2022/01/02 07:37:25;;;;;;;0.40;0.40;;;11.40;99.90;;;;;;5050381;28;20043;-86
2022/01/02 07:39:51;;;;;;;0.57;0.57;;;11.30;99.90;;;;;;5043083;28;20040;-88
2022/01/02 07:42:17;;;;;;;0.50;0.50;;;11.30;99.90;;;;;;5042312;28;20036;-87
2022/01/02 07:44:42;;;;;;;1.30;1.25;;;11.30;99.90;;;;;;5058315;28;20033;-88
2022/01/02 07:47:08;;;;;;;0.50;0.50;;;11.30;99.90;;;;;;5056007;28;20075;-87
2022/01/02 07:49:34;;;;;;;0.70;0.70;;;11.30;99.90;;;;;;5033822;28;20072;-89
2022/01/02 07:52:00;;;;;;;0.50;0.50;;;11.30;99.90;;;;;;5051158;28;20596;-86
2022/01/02 07:54:26;;;;;;;1.35;1.15;;;11.30;99.90;;;;;;5060919;28;20029;-91
2022/01/02 07:56:51;;;;;;;0.93;0.93;;;11.30;99.90;;;;;;5043006;28;20045;-89
2022/01/02 07:59:17;;;;;;;0.50;0.50;;;11.30;99.90;;;;;;5042837;28;20033;-88
2022/01/02 08:01:43;;;;;;;0.60;0.60;;;11.30;99.90;;;;;;5061142;28;20117;-87
2022/01/02 08:04:08;;;;;;;0.68;0.68;;;11.30;99.90;;;;;;5039301;28;20037;-88
2022/01/02 08:06:34;;;;;;;1.35;1.25;;;11.30;99.90;;;;;;5036358;28;20041;-88
2022/01/02 08:09:00;;;;;;;0.73;0.73;;;11.30;99.90;;;;;;5043994;28;20059;-87
2022/01/02 08:11:25;;;;;;;0.50;0.50;;;11.30;99.90;;;;;;5042783;28;20047;-90
2022/01/02 08:13:51;;;;;;;0.93;0.65;;;11.30;99.90;;;;;;5038678;28;20049;-90
2022/01/02 08:16:16;;;;;;;0.93;0.65;;;11.30;99.90;;;;;;5037051;28;20037;-90
2022/01/02 08:18:42;;;;;;;1.02;1.02;;;11.20;99.90;;;;;;5036636;28;20087;-89
2022/01/02 08:21:08;;;;;;;0.57;0.57;;;11.30;99.90;;;;;;5041245;28;20541;-89
2022/01/02 08:23:35;;;;;;;1.92;1.15;;;11.30;99.90;;;;;;5044914;28;20045;-89
2022/01/02 08:26:01;;;;;;;0.50;0.50;;;11.30;99.90;;;;;;5058345;28;20041;-89
2022/01/02 08:28:27;;;;;;;0.50;0.50;;;11.30;99.90;;;;;;5041869;28;20076;-89
2022/01/02 08:30:52;;;;;;;0.60;0.60;;;11.30;99.90;;;;;;5050668;28;20040;-88
2022/01/02 08:33:18;;;;;;;0.60;0.60;;;11.30;99.90;;;;;;5052168;28;20120;-88
2022/01/02 08:35:44;;;;;;;0.98;0.77;;;11.30;99.90;;;;;;5038468;28;20489;-90
2022/01/02 08:38:12;;;;;;;0.60;0.60;;;11.30;99.90;;;;;;5040153;28;20037;-91
2022/01/02 08:40:39;;;;;;;0.95;0.90;;;11.30;99.90;;;;;;5046799;28;20065;-90
2022/01/02 08:43:06;;;;;;;0.75;0.68;;;11.20;99.90;;;;;;5046336;28;20032;-90
2022/01/02 08:45:33;;;;;;;0.98;0.98;;;11.20;99.90;;;;;;5045036;28;20056;-90
2022/01/02 08:47:58;;;;;;;0.50;0.50;;;11.20;99.90;;;;;;5060775;28;20100;-89
2022/01/02 08:50:24;;;;;;;0.95;0.90;;;11.20;99.90;;;;;;5045710;28;20080;-89
2022/01/02 08:52:50;;;;;;;0.55;0.55;;;11.20;99.90;;;;;;5046072;28;20037;-90
2022/01/02 08:55:16;;;;;;;1.08;1.08;;;11.20;99.90;;;;;;5044782;28;20040;-91
2022/01/02 08:57:42;;;;;;;2.45;2.25;;;11.20;99.90;;;;;;5045626;28;20055;-89
2022/01/02 09:00:09;;;;;;;1.13;1.02;;;11.20;99.90;;;;;;5039163;28;20037;-89
2022/01/02 09:02:34;;;;;;;0.50;0.50;;;11.10;99.90;;;;;;5044901;28;20044;-89
2022/01/02 09:05:00;;;;;;;0.85;0.85;;;11.10;99.90;;;;;;5042984;28;20111;-90
2022/01/02 09:07:26;;;;;;;0.85;0.60;;;11.10;99.90;;;;;;5047488;28;20036;-87
2022/01/02 09:09:51;;;;;;;0.50;0.50;;;11.10;99.90;;;;;;5043628;28;20381;-89
2022/01/02 09:12:18;;;;;;;0.60;0.60;;;11.10;99.90;;;;;;5043146;28;20040;-89
2022/01/02 09:14:44;;;;;;;0.60;0.60;;;11.10;99.90;;;;;;5044979;28;20045;-88
2022/01/02 09:17:10;;;;;;;0.50;0.50;;;11.10;99.90;;;;;;5045905;28;20068;-89
2022/01/02 09:19:36;;;;;;;0.60;0.60;;;11.10;99.90;;;;;;5056980;28;20045;-90
2022/01/02 09:22:02;;;;;;;0.77;0.77;;;11.10;99.90;;;;;;5046155;28;20037;-89
2022/01/02 09:24:28;;;;;;;0.85;0.85;;;11.10;99.90;;;;;;5052741;28;20041;-86
2022/01/02 09:26:54;;;;;;;0.70;0.70;;;11.00;99.90;;;;;;5050491;28;20032;-86
2022/01/02 09:29:19;;;;;;;1.65;1.25;;;11.00;99.90;;;;;;5044575;28;20040;-85
2022/01/02 09:31:45;;;;;;;0.60;0.60;;;11.00;99.90;;;;;;5043575;28;20114;-84
2022/01/02 09:34:11;;;;;;;0.50;0.50;;;11.00;99.90;;;;;;5041511;28;20051;-86
2022/01/02 09:36:36;;;;;;;1.02;1.02;;;11.00;99.90;;;;;;5044092;28;20071;-86
2022/01/02 09:39:03;;;;;;;4.68;4.03;;;11.00;99.90;;;;;;5057664;28;20060;-86
2022/01/02 09:41:29;;;;;;;0.85;0.85;;;11.00;99.90;;;;;;5059072;28;20131;-85
2022/01/02 09:43:55;;;;;;;0.50;0.50;;;11.00;99.90;;;;;;5077635;28;20036;-88
2022/01/02 09:46:22;;;;;;;0.60;0.60;;;11.00;99.90;;;;;;5057204;28;20046;-87
2022/01/02 09:48:49;;;;;;;1.85;1.58;;;10.90;99.90;;;;;;5027647;28;20063;-85
2022/01/02 09:51:24;;;;;;;0.50;0.50;;;11.00;99.90;;;;;;5042091;28;20040;-84
2022/01/02 09:53:51;;;;;;;0.50;0.50;;;11.00;99.90;;;;;;5043722;28;20460;-87
2022/01/02 09:56:18;;;;;;;0.70;0.70;;;11.00;99.90;;;;;;5053023;28;20056;-86
2022/01/02 09:58:44;;;;;;;0.57;0.57;;;11.00;99.90;;;;;;5057469;28;20152;-87
2022/01/02 10:01:18;;;;;;;0.73;0.73;;;11.00;99.90;;;;;;5042476;28;20140;-86
2022/01/02 10:03:46;;;;;;;0.50;0.50;;;11.00;99.90;;;;;;5039492;28;20099;-89
2022/01/02 10:06:12;;;;;;;0.50;0.50;;;11.00;99.90;;;;;;5042170;28;20485;-88
2022/01/02 10:08:38;;;;;;;2.15;1.20;;;11.00;99.90;;;;;;5039490;28;20090;-87
2022/01/02 10:11:08;;;;;;;0.60;0.60;;;11.00;99.90;;;;;;5046471;28;20048;-88
2022/01/02 10:13:45;;;;;;;0.68;0.68;;;11.00;99.90;;;;;;5037244;28;20045;-86
2022/01/02 10:16:26;;;;;;;1.75;1.65;;;11.00;99.90;;;;;;5057852;28;20186;-86
2022/01/02 10:18:54;;;;;;;0.75;0.75;;;11.10;99.90;;;;;;5058998;28;20445;-87
2022/01/02 10:21:32;;;;;;;0.60;0.60;;;11.10;99.90;;;;;;5058916;28;20171;-87
2022/01/02 10:24:22;;;;;;;0.60;0.60;;;11.10;99.90;;;;;;5056119;28;20059;-86
2022/01/02 10:27:17;;;;;;;0.93;0.85;;;11.20;99.90;;;;;;5055343;28;20056;-90
2022/01/02 10:29:51;;;;;;;0.65;0.65;;;11.20;99.90;;;;;;5044382;28;20063;-87
2022/01/02 10:32:26;;;;;;;;;;;11.20;99.90;;;;;;5058716;28;20048;-86
2022/01/02 10:34:55;;;;;;;0.60;0.60;;;11.20;99.90;;;;;;5053175;28;19925;-87
2022/01/02 10:37:25;;;;;;;0.50;0.50;;;11.20;99.90;;;;;;5050631;28;20053;-88
2022/01/02 10:39:51;;;;;;;5.88;2.25;;;11.20;99.90;;;;;;5041268;28;20099;-90
2022/01/02 10:42:18;;;;;;;1.30;1.23;;;11.20;99.90;;;;;;5043276;28;20948;-85
2022/01/02 10:44:44;;;;;;;0.65;0.65;;;11.20;99.90;;;;;;5042712;28;20116;-88
2022/01/02 10:47:24;;;;;;;0.85;0.85;;;11.20;99.90;;;;;;5060022;28;20056;-87
2022/01/02 10:49:59;;;;;;;3.15;0.93;;;11.30;99.90;;;;;;5041514;28;20097;-91
2022/01/02 10:52:30;;;;;;;0.60;0.60;;;11.30;99.90;;;;;;5056768;28;20048;-86
2022/01/02 10:54:59;;;;;;;0.80;0.80;;;11.30;99.90;;;;;;5068735;28;20119;-87
2022/01/02 10:57:26;;;;;;;0.85;0.82;;;11.30;99.90;;;;;;5038230;28;20053;-89
2022/01/02 10:59:55;;;;;;;1.55;1.25;;;11.30;99.90;;;;;;5044102;28;20049;-88
2022/01/02 11:02:28;;;;;;;1.80;1.70;;;11.30;99.90;;;;;;5040437;28;20036;-87
2022/01/02 11:05:21;;;;;;;0.65;0.65;;;11.40;99.90;;;;;;5058170;28;20049;-86
2022/01/02 11:07:52;;;;;;;0.75;0.75;;;11.40;99.90;;;;;;5056158;28;20087;-86
2022/01/02 11:10:20;;;;;;;1.00;1.00;;;11.40;99.90;;;;;;5042079;28;20040;-88
2022/01/02 11:12:48;;;;;;;0.63;0.63;;;11.40;99.90;;;;;;5041276;28;20052;-89
2022/01/02 11:15:17;;;;;;;0.93;0.93;;;11.40;99.90;;;;;;5043199;28;20472;-90
2022/01/02 11:17:43;;;;;;;1.05;1.05;;;11.40;99.90;;;;;;5044974;28;20045;-89
2022/01/02 11:20:14;;;;;;;0.75;0.75;;;11.40;99.90;;;;;;5042834;28;20144;-86
2022/01/02 11:22:47;;;;;;;0.65;0.65;;;11.40;99.90;;;;;;5061202;28;20053;-88
2022/01/02 11:25:41;;;;;;;0.57;0.57;;;11.50;99.90;;;;;;5037402;28;20067;-91
2022/01/02 11:28:22;;;;;;;0.93;0.82;;;11.60;99.90;;;;;;5060062;28;20052;-89
2022/01/02 11:30:50;;;;;;;0.80;0.80;;;11.60;99.90;;;;;;5043199;28;20461;-91
2022/01/02 11:33:19;;;;;;;2.45;1.25;;;11.60;99.90;;;;;;5041307;28;20069;-88
2022/01/02 11:35:49;;;;;;;0.70;0.70;;;11.60;99.90;;;;;;5042629;28;20075;-90
2022/01/02 11:38:17;;;;;;;0.70;0.70;;;11.70;99.90;;;;;;5044110;28;20037;-91
2022/01/02 11:40:58;;;;;;;5.57;1.20;;;11.60;99.90;;;;;;5043672;28;20041;-89
2022/01/02 11:43:36;;;;;;;2.15;1.15;;;11.60;99.90;;;;;;5058351;28;20112;-88
2022/01/02 11:46:18;;;;;;;0.60;0.60;;;11.50;99.90;;;;;;5043013;28;20041;-87
2022/01/02 11:49:13;;;;;;;10.60;3.08;;;11.50;99.90;;;;;;5057806;28;20259;-86
2022/01/02 11:51:50;;;;;;;1.02;1.02;;;11.60;99.90;;;;;;5045805;28;20231;-89
2022/01/02 11:54:32;;;;;;;0.60;0.60;;;11.60;99.90;;;;;;5064098;28;20174;-85
2022/01/02 11:57:11;;;;;;;0.60;0.60;;;11.60;99.90;;;;;;5077767;28;20041;-86
2022/01/02 11:59:39;;;;;;;0.70;0.70;;;11.60;99.90;;;;;;5060518;28;20094;-86
2022/01/02 12:02:23;;;;;;;0.70;0.70;;;11.50;99.90;;;;;;5043370;28;20037;-88
2022/01/02 12:05:19;;;;;;;1.30;1.20;;;11.50;99.90;;;;;;5057353;28;20108;-90
2022/01/02 12:07:50;;;;;;;0.70;0.70;;;11.50;99.90;;;;;;5068288;28;20131;-91
2022/01/02 12:10:20;;;;;;;0.80;0.80;;;11.40;99.90;;;;;;5041949;28;20049;-87
2022/01/02 12:13:10;;;;;;;0.60;0.60;;;11.50;99.90;;;;;;5046977;28;20041;-88
2022/01/02 12:15:39;;;;;;;0.50;0.50;;;11.60;99.90;;;;;;5050509;28;20048;-85
2022/01/02 12:18:10;;;;;;;1.40;1.30;;;11.50;99.90;;;;;;5047457;28;20068;-86
2022/01/02 12:20:56;;;;;;;0.95;0.88;;;11.40;99.90;;;;;;5062846;28;20049;-88
2022/01/02 12:23:34;;;;;;;1.95;1.05;;;11.40;99.90;;;;;;5059553;28;20068;-86
2022/01/02 12:26:05;;;;;;;0.90;0.90;;;11.50;99.90;;;;;;5056035;28;20040;-86
2022/01/02 12:28:41;;;;;;;1.10;0.85;;;11.50;99.90;;;;;;5074762;28;20095;-88
2022/01/02 12:31:09;;;;;;;0.65;0.65;;;11.50;99.90;;;;;;5061786;28;20064;-84
2022/01/02 12:33:38;;;;;;;0.50;0.50;;;11.60;99.90;;;;;;5051422;28;20059;-88
2022/01/02 12:36:14;;;;;;;0.60;0.60;;;11.50;99.90;;;;;;5038975;28;20045;-87
2022/01/02 12:38:56;;;;;;;0.50;0.50;;;11.50;99.90;;;;;;5041329;28;20064;-87
2022/01/02 12:41:24;;;;;;;2.05;1.95;;;11.50;99.90;;;;;;5041319;28;20054;-86
2022/01/02 12:44:00;;;;;;;0.60;0.60;;;11.40;99.90;;;;;;5057949;28;20063;-88
2022/01/02 12:46:37;;;;;;;0.90;0.70;;;11.50;99.90;;;;;;5056574;28;20106;-86
2022/01/02 12:49:14;;;;;;;0.85;0.85;;;11.50;99.90;;;;;;5057188;28;20443;-87
2022/01/02 12:51:46;;;;;;;0.50;0.50;;;11.60;99.90;;;;;;5062133;28;20136;-89
2022/01/02 12:54:14;;;;;;;0.60;0.60;;;11.60;99.90;;;;;;5059829;28;20044;-85
2022/01/02 12:56:42;;;;;;;1.55;1.45;;;11.60;99.90;;;;;;5063352;28;20437;-85
2022/01/02 12:59:14;;;;;;;1.05;0.80;;;11.50;99.90;;;;;;5044030;28;20158;-86
2022/01/02 13:02:07;;;;;;;0.65;0.65;;;11.50;99.90;;;;;;5061560;28;20060;-86